createdAt,value
2019-02-07T00:00:12.412Z,-955.96
2019-02-07T00:01:12.606Z,-963.94
2019-02-07T00:02:12.863Z,-960.55
2019-02-07T00:03:13.010Z,-962.00
2019-02-07T00:04:13.208Z,-963.22
2019-02-07T00:05:13.425Z,-958.97
2019-02-07T00:06:13.630Z,-966.36
2019-02-07T00:07:13.864Z,-961.06
2019-02-07T00:08:14.054Z,-961.04
2019-02-07T00:09:14.248Z,-964.93
2019-02-07T00:10:14.487Z,-961.78
2019-02-07T00:11:14.629Z,-964.45
2019-02-07T00:12:14.881Z,-964.05
2019-02-07T00:13:15.093Z,-960.62
2019-02-07T00:14:15.285Z,-961.46
2019-02-07T00:15:15.509Z,-966.09
2019-02-07T00:16:15.698Z,-963.22
2019-02-07T00:17:15.901Z,-964.62
2019-02-07T00:18:16.164Z,-963.67
2019-02-07T00:19:16.420Z,-963.45
2019-02-07T00:20:16.580Z,-968.72
2019-02-07T00:21:16.745Z,-973.06
2019-02-07T00:22:16.991Z,-972.81
2019-02-07T00:23:17.205Z,-967.55
2019-02-07T00:24:17.404Z,-973.22
2019-02-07T00:25:17.630Z,-970.96
2019-02-07T00:26:17.825Z,-967.14
2019-02-07T00:27:18.169Z,-970.09
2019-02-07T00:28:18.234Z,-969.76
2019-02-07T00:29:18.433Z,-962.59
2019-02-07T00:30:18.658Z,-970.37
2019-02-07T00:31:18.844Z,-970.99
2019-02-07T00:32:19.077Z,-968.31
2019-02-07T00:33:19.270Z,-970.31
2019-02-07T00:34:19.487Z,-967.81
2019-02-07T00:35:19.784Z,-971.14
2019-02-07T00:36:19.873Z,-966.87
2019-02-07T00:37:20.102Z,-968.70
2019-02-07T00:38:20.284Z,-967.74
2019-02-07T00:39:20.496Z,-969.32
2019-02-07T00:40:20.735Z,-968.86
2019-02-07T00:41:21.141Z,-971.23
2019-02-07T00:42:21.140Z,-968.22
2019-02-07T00:43:21.390Z,-971.09
2019-02-07T00:44:21.514Z,-971.51
2019-02-07T00:45:21.750Z,-971.82
2019-02-07T00:46:21.947Z,-970.93
2019-02-07T00:47:22.146Z,-969.62
2019-02-07T00:48:22.352Z,-973.83
2019-02-07T00:49:22.567Z,-968.06
2019-02-07T00:50:22.773Z,-971.79
2019-02-07T00:51:23.029Z,-976.64
2019-02-07T00:52:23.241Z,-973.86
2019-02-07T00:53:23.435Z,-972.16
2019-02-07T00:54:23.636Z,-969.82
2019-02-07T00:55:23.853Z,-970.99
2019-02-07T00:56:24.053Z,-970.40
2019-02-07T00:57:24.273Z,-971.54
2019-02-07T00:58:24.516Z,-977.59
2019-02-07T00:59:24.731Z,-970.20
2019-02-07T01:00:25.062Z,-972.89
2019-02-07T01:01:25.149Z,-969.68
2019-02-07T01:02:25.375Z,-973.88
2019-02-07T01:03:25.598Z,-969.97
2019-02-07T01:04:25.798Z,-972.89
2019-02-07T01:05:26.014Z,-974.30
2019-02-07T01:06:26.178Z,-970.43
2019-02-07T01:07:26.385Z,-973.23
2019-02-07T01:08:26.795Z,-970.55
2019-02-07T01:09:26.822Z,-969.18
2019-02-07T01:10:27.048Z,-973.94
2019-02-07T01:11:27.226Z,-975.04
2019-02-07T01:12:27.438Z,-973.42
2019-02-07T01:13:27.692Z,-971.11
2019-02-07T01:14:27.857Z,-969.11
2019-02-07T01:15:28.100Z,-971.53
2019-02-07T01:16:28.355Z,-974.16
2019-02-07T01:17:28.468Z,-965.51
2019-02-07T01:18:28.727Z,-971.92
2019-02-07T01:19:28.909Z,-970.29
2019-02-07T01:20:29.123Z,-967.58
2019-02-07T01:21:29.331Z,-968.96
2019-02-07T01:22:29.522Z,-973.42
2019-02-07T01:23:29.740Z,-969.29
2019-02-07T01:24:29.998Z,-973.31
2019-02-07T01:25:30.152Z,-973.56
2019-02-07T01:26:30.352Z,-970.13
2019-02-07T01:27:30.561Z,-968.24
2019-02-07T01:28:30.812Z,-969.90
2019-02-07T01:29:30.987Z,-969.42
2019-02-07T01:30:31.210Z,-972.86
2019-02-07T01:31:31.401Z,-972.30
2019-02-07T01:32:31.621Z,-966.79
2019-02-07T01:33:31.938Z,-971.15
2019-02-07T01:34:32.013Z,-970.15
2019-02-07T01:35:32.238Z,-973.49
2019-02-07T01:36:32.431Z,-977.54
2019-02-07T01:37:32.639Z,-979.43
2019-02-07T01:38:32.877Z,-975.32
2019-02-07T01:39:33.055Z,-978.51
2019-02-07T01:40:33.277Z,-970.74
2019-02-07T01:41:33.592Z,-975.47
2019-02-07T01:42:33.677Z,-970.06
2019-02-07T01:43:33.918Z,-971.50
2019-02-07T01:44:34.087Z,-973.49
2019-02-07T01:45:34.305Z,-973.47
2019-02-07T01:46:34.506Z,-976.84
2019-02-07T01:47:34.718Z,-975.34
2019-02-07T01:48:34.945Z,-969.78
2019-02-07T01:49:35.191Z,-976.18
2019-02-07T01:50:35.311Z,-976.52
2019-02-07T01:51:35.537Z,-970.66
2019-02-07T01:52:35.744Z,-977.71
2019-02-07T01:53:35.985Z,-977.23
2019-02-07T01:54:36.160Z,-977.11
2019-02-07T01:55:36.382Z,-979.49
2019-02-07T01:56:36.571Z,-979.28
2019-02-07T01:57:36.846Z,-977.93
2019-02-07T01:58:36.990Z,-974.78
2019-02-07T01:59:37.191Z,-976.19
2019-02-07T02:00:37.412Z,-978.01
2019-02-07T02:01:37.614Z,-972.69
2019-02-07T02:02:37.814Z,-976.13
2019-02-07T02:03:38.045Z,-974.19
2019-02-07T02:04:38.257Z,-979.65
2019-02-07T02:05:38.500Z,-973.57
2019-02-07T02:06:38.769Z,-978.11
2019-02-07T02:07:38.883Z,-977.08
2019-02-07T02:08:39.111Z,-977.58
2019-02-07T02:09:39.297Z,-976.87
2019-02-07T02:10:39.523Z,-976.44
2019-02-07T02:11:39.731Z,-973.75
2019-02-07T02:12:39.920Z,-975.08
2019-02-07T02:13:40.176Z,-976.73
2019-02-07T02:14:40.436Z,-975.80
2019-02-07T02:15:40.555Z,-977.53
2019-02-07T02:16:40.768Z,-974.53
2019-02-07T02:17:40.959Z,-975.93
2019-02-07T02:18:41.422Z,-976.22
2019-02-07T02:19:41.359Z,-972.15
2019-02-07T02:20:41.580Z,-976.61
2019-02-07T02:21:41.822Z,-980.71
2019-02-07T02:22:42.153Z,-972.76
2019-02-07T02:23:42.242Z,-978.42
2019-02-07T02:24:45.112Z,-975.81
2019-02-07T02:25:42.631Z,-977.83
2019-02-07T02:26:42.866Z,-975.38
2019-02-07T02:27:43.056Z,-977.00
2019-02-07T02:28:43.290Z,-974.73
2019-02-07T02:29:43.469Z,-973.44
2019-02-07T02:30:43.770Z,-974.52
2019-02-07T02:31:43.887Z,-972.10
2019-02-07T02:32:44.083Z,-974.93
2019-02-07T02:33:44.366Z,-975.67
2019-02-07T02:34:44.498Z,-976.60
2019-02-07T02:35:44.708Z,-976.94
2019-02-07T02:36:44.913Z,-970.90
2019-02-07T02:37:45.124Z,-976.13
2019-02-07T02:38:45.439Z,-975.45
2019-02-07T02:39:45.516Z,-969.71
2019-02-07T02:40:45.737Z,-973.90
2019-02-07T02:41:45.956Z,-977.89
2019-02-07T02:42:46.133Z,-972.48
2019-02-07T02:43:46.408Z,-972.85
2019-02-07T02:44:46.572Z,-978.33
2019-02-07T02:45:46.780Z,-976.63
2019-02-07T02:46:47.040Z,-974.20
2019-02-07T02:47:47.250Z,-977.45
2019-02-07T02:48:47.481Z,-975.32
2019-02-07T02:49:47.649Z,-973.10
2019-02-07T02:50:47.856Z,-974.67
2019-02-07T02:51:48.082Z,-975.20
2019-02-07T02:52:48.270Z,-976.30
2019-02-07T02:53:48.782Z,-974.25
2019-02-07T02:54:48.683Z,-976.36
2019-02-07T02:55:49.026Z,-968.31
2019-02-07T02:56:49.128Z,-967.99
2019-02-07T02:57:49.322Z,-969.67
2019-02-07T02:58:49.544Z,-971.12
2019-02-07T02:59:49.735Z,-965.87
2019-02-07T03:00:49.931Z,-964.87
2019-02-07T03:01:50.162Z,-968.81
2019-02-07T03:02:50.358Z,-969.95
2019-02-07T03:03:50.937Z,-968.46
2019-02-07T03:04:50.757Z,-965.36
2019-02-07T03:05:50.963Z,-963.55
2019-02-07T03:06:51.189Z,-965.68
2019-02-07T03:07:51.378Z,-969.26
2019-02-07T03:08:51.616Z,-963.96
2019-02-07T03:09:51.772Z,-966.28
2019-02-07T03:10:52.017Z,-958.40
2019-02-07T03:11:52.278Z,-966.62
2019-02-07T03:12:52.400Z,-965.55
2019-02-07T03:13:52.631Z,-962.76
2019-02-07T03:14:52.831Z,-965.97
2019-02-07T03:15:53.038Z,-961.59
2019-02-07T03:16:53.258Z,-961.41
2019-02-07T03:17:53.449Z,-961.15
2019-02-07T03:18:53.678Z,-963.75
2019-02-07T03:19:53.934Z,-960.10
2019-02-07T03:20:54.041Z,-962.85
2019-02-07T03:21:54.278Z,-964.54
2019-02-07T03:22:54.490Z,-961.88
2019-02-07T03:23:54.705Z,-964.40
2019-02-07T03:24:54.928Z,-965.96
2019-02-07T03:25:55.108Z,-963.30
2019-02-07T03:26:55.336Z,-966.92
2019-02-07T03:27:55.533Z,-963.98
2019-02-07T03:28:55.790Z,-959.65
2019-02-07T03:29:56.180Z,-962.85
2019-02-07T03:30:56.135Z,-960.13
2019-02-07T03:31:56.375Z,-961.97
2019-02-07T03:32:56.778Z,-961.12
2019-02-07T03:33:56.785Z,-960.80
2019-02-07T03:34:56.982Z,-962.57
2019-02-07T03:35:57.173Z,-955.08
2019-02-07T03:36:57.529Z,-961.84
2019-02-07T03:37:57.612Z,-964.77
2019-02-07T03:38:57.809Z,-963.12
2019-02-07T03:39:58.073Z,-956.92
2019-02-07T03:40:58.219Z,-961.69
2019-02-07T03:41:58.445Z,-958.32
2019-02-07T03:42:58.642Z,-954.77
2019-02-07T03:43:58.836Z,-958.84
2019-02-07T03:44:59.228Z,-959.72
2019-02-07T03:46:02.853Z,-945.40
2019-02-07T03:46:59.464Z,-951.91
2019-02-07T03:47:59.658Z,-950.34
2019-02-07T03:48:59.847Z,-950.79
2019-02-07T03:50:00.122Z,-896.54
2019-02-07T03:51:00.302Z,-899.16
2019-02-07T03:52:00.519Z,-900.47
2019-02-07T03:53:00.755Z,-901.40
2019-02-07T03:54:00.893Z,-899.42
2019-02-07T03:55:01.334Z,-904.07
2019-02-07T03:56:01.312Z,-905.19
2019-02-07T03:57:01.558Z,-904.90
2019-02-07T03:58:01.736Z,-906.24
2019-02-07T03:59:01.947Z,-901.68
2019-02-07T04:00:02.401Z,-903.98
2019-02-07T04:01:02.387Z,-903.78
2019-02-07T04:02:02.591Z,-908.97
2019-02-07T04:03:02.789Z,-905.04
2019-02-07T04:04:02.990Z,-908.13
2019-02-07T04:05:03.219Z,-907.68
2019-02-07T04:06:03.410Z,-901.46
2019-02-07T04:07:03.593Z,-900.50
2019-02-07T04:08:03.818Z,-907.22
2019-02-07T04:09:04.035Z,-902.36
2019-02-07T04:10:04.352Z,-907.09
2019-02-07T04:11:04.422Z,-900.49
2019-02-07T04:12:04.641Z,-904.66
2019-02-07T04:13:04.860Z,-905.86
2019-02-07T04:14:05.066Z,-906.84
2019-02-07T04:15:05.289Z,-910.09
2019-02-07T04:16:14.805Z,-900.36
2019-02-07T04:17:06.667Z,-896.31
2019-02-07T04:18:06.017Z,-906.90
2019-02-07T04:19:06.102Z,-902.26
2019-02-07T04:20:06.332Z,-905.04
2019-02-07T04:21:06.529Z,-904.19
2019-02-07T04:22:06.713Z,-903.20
2019-02-07T04:23:06.941Z,-903.54
2019-02-07T04:24:07.174Z,-899.81
2019-02-07T04:25:07.397Z,-902.08
2019-02-07T04:26:07.653Z,-902.24
2019-02-07T04:27:07.774Z,-901.66
2019-02-07T04:28:07.989Z,-904.08
2019-02-07T04:29:08.194Z,-902.77
2019-02-07T04:30:08.415Z,-900.91
2019-02-07T04:31:08.618Z,-902.68
2019-02-07T04:32:08.813Z,-900.77
2019-02-07T04:33:09.041Z,-900.78
2019-02-07T04:34:09.292Z,-902.23
2019-02-07T04:35:09.429Z,-908.33
2019-02-07T04:36:09.654Z,-900.35
2019-02-07T04:37:09.828Z,-902.20
2019-02-07T04:38:10.067Z,-902.31
2019-02-07T04:39:10.253Z,-897.95
2019-02-07T04:40:12.103Z,-896.22
2019-02-07T04:41:10.713Z,-892.70
2019-02-07T04:42:10.916Z,-893.02
2019-02-07T04:43:11.182Z,-902.87
2019-02-07T04:44:11.301Z,-897.92
2019-02-07T04:45:11.510Z,-899.25
2019-02-07T04:46:11.729Z,-903.60
2019-02-07T04:47:11.920Z,-903.35
2019-02-07T04:48:12.146Z,-899.61
2019-02-07T04:49:12.361Z,-905.88
2019-02-07T04:50:12.566Z,-900.07
2019-02-07T04:51:12.845Z,-902.06
2019-02-07T04:52:12.953Z,-905.50
2019-02-07T04:53:13.174Z,-904.60
2019-02-07T04:54:13.367Z,-903.12
2019-02-07T04:55:13.585Z,-908.66
2019-02-07T04:56:13.757Z,-905.10
2019-02-07T04:57:14.006Z,-910.31
2019-02-07T04:58:14.200Z,-904.43
2019-02-07T04:59:14.549Z,-904.90
2019-02-07T05:00:14.613Z,-899.04
2019-02-07T05:01:14.786Z,-900.63
2019-02-07T05:02:15.012Z,-898.94
2019-02-07T05:03:15.228Z,-896.16
2019-02-07T05:04:15.436Z,-898.37
2019-02-07T05:05:15.646Z,-898.12
2019-02-07T05:06:15.834Z,-891.90
2019-02-07T05:07:16.068Z,-899.36
2019-02-07T05:08:16.246Z,-897.09
2019-02-07T05:09:16.442Z,-898.36
2019-02-07T05:10:16.665Z,-900.72
2019-02-07T05:11:16.860Z,-908.03
2019-02-07T05:12:17.086Z,-908.60
2019-02-07T05:13:17.265Z,-904.08
2019-02-07T05:14:17.469Z,-905.71
2019-02-07T05:15:17.733Z,-902.70
2019-02-07T05:16:17.873Z,-903.28
2019-02-07T05:17:18.113Z,-898.28
2019-02-07T05:18:18.299Z,-892.22
2019-02-07T05:19:18.499Z,-898.77
2019-02-07T05:20:18.734Z,-896.23
2019-02-07T05:21:18.937Z,-898.16
2019-02-07T05:22:19.133Z,-897.58
2019-02-07T05:23:19.388Z,-897.17
2019-02-07T05:24:19.644Z,-946.21
2019-02-07T05:25:19.755Z,-946.22
2019-02-07T05:26:19.982Z,-952.38
2019-02-07T05:27:20.185Z,-949.72
2019-02-07T05:28:20.418Z,-946.95
2019-02-07T05:29:20.583Z,-944.48
2019-02-07T05:30:20.806Z,-946.87
2019-02-07T05:31:21.049Z,-887.56
2019-02-07T05:32:21.352Z,-942.79
2019-02-07T05:33:21.493Z,-941.84
2019-02-07T05:34:21.635Z,-941.74
2019-02-07T05:35:22.091Z,-948.84
2019-02-07T05:36:22.089Z,-938.22
2019-02-07T05:37:22.280Z,-941.76
2019-02-07T05:38:22.517Z,-933.99
2019-02-07T05:39:22.692Z,-935.81
2019-02-07T05:40:22.983Z,-937.33
2019-02-07T05:41:23.111Z,-945.61
2019-02-07T05:42:23.315Z,-937.76
2019-02-07T05:43:23.535Z,-936.56
2019-02-07T05:44:23.717Z,-938.83
2019-02-07T05:45:23.923Z,-939.13
2019-02-07T05:46:24.133Z,-938.29
2019-02-07T05:47:24.333Z,-940.17
2019-02-07T05:48:24.635Z,-946.65
2019-02-07T05:49:24.733Z,-947.36
2019-02-07T05:50:24.950Z,-941.98
2019-02-07T05:51:25.170Z,-947.01
2019-02-07T05:52:25.343Z,-943.70
2019-02-07T05:53:25.606Z,-946.50
2019-02-07T05:54:25.780Z,-941.77
2019-02-07T05:55:25.983Z,-939.62
2019-02-07T05:56:26.244Z,-928.08
2019-02-07T05:57:26.422Z,-941.75
2019-02-07T05:58:26.658Z,-938.32
2019-02-07T05:59:26.815Z,-936.62
2019-02-07T06:00:27.017Z,-935.95
2019-02-07T06:01:27.246Z,-938.88
2019-02-07T06:02:27.423Z,-940.97
2019-02-07T06:03:27.676Z,-938.74
2019-02-07T06:04:27.841Z,-933.44
2019-02-07T06:05:28.143Z,-937.32
2019-02-07T06:06:28.277Z,-937.47
2019-02-07T06:07:28.462Z,-934.43
2019-02-07T06:08:28.703Z,-941.26
2019-02-07T06:09:28.880Z,-938.63
2019-02-07T06:10:29.089Z,-945.91
2019-02-07T06:11:29.305Z,-939.85
2019-02-07T06:12:29.497Z,-938.01
2019-02-07T06:13:29.841Z,-946.63
2019-02-07T06:14:30.000Z,-938.32
2019-02-07T06:15:30.116Z,-942.75
2019-02-07T06:16:30.345Z,-942.78
2019-02-07T06:17:30.523Z,-942.88
2019-02-07T06:18:30.774Z,-938.16
2019-02-07T06:19:30.929Z,-939.70
2019-02-07T06:20:31.155Z,-943.59
2019-02-07T06:21:31.432Z,-943.33
2019-02-07T06:22:31.548Z,-945.81
2019-02-07T06:23:31.782Z,-949.91
2019-02-07T06:24:31.968Z,-947.33
2019-02-07T06:25:32.184Z,-950.05
2019-02-07T06:26:32.404Z,-943.17
2019-02-07T06:27:32.588Z,-940.52
2019-02-07T06:28:32.795Z,-938.77
2019-02-07T06:29:33.071Z,-935.54
2019-02-07T06:30:33.211Z,-942.69
2019-02-07T06:31:33.453Z,-944.27
2019-02-07T06:32:33.631Z,-938.81
2019-02-07T06:33:33.840Z,-941.40
2019-02-07T06:34:34.075Z,-943.42
2019-02-07T06:35:34.272Z,-940.40
2019-02-07T06:36:34.498Z,-938.58
2019-02-07T06:37:34.713Z,-940.44
2019-02-07T06:38:34.947Z,-940.79
2019-02-07T06:39:35.124Z,-942.41
2019-02-07T06:40:35.306Z,-940.21
2019-02-07T06:41:35.541Z,-934.38
2019-02-07T06:42:35.704Z,-933.57
2019-02-07T06:43:35.926Z,-927.76
2019-02-07T06:44:36.171Z,-930.67
2019-02-07T06:45:36.342Z,-939.65
2019-02-07T06:46:36.696Z,-943.13
2019-02-07T06:47:36.736Z,-945.95
2019-02-07T06:48:36.957Z,-943.93
2019-02-07T06:49:37.180Z,-947.54
2019-02-07T06:50:37.377Z,-941.48
2019-02-07T06:51:37.605Z,-935.95
2019-02-07T06:52:37.790Z,-942.91
2019-02-07T06:53:37.975Z,-946.97
2019-02-07T06:54:38.301Z,-940.80
2019-02-07T06:55:38.398Z,-941.59
2019-02-07T06:56:38.623Z,-932.67
2019-02-07T06:57:38.814Z,-876.12
2019-02-07T06:58:38.990Z,-930.29
2019-02-07T06:59:39.254Z,-933.45
2019-02-07T07:00:39.427Z,-928.96
2019-02-07T07:01:39.659Z,-935.95
2019-02-07T07:02:39.888Z,-928.98
2019-02-07T07:03:40.022Z,-928.62
2019-02-07T07:04:40.279Z,-932.17
2019-02-07T07:05:40.475Z,-936.61
2019-02-07T07:06:40.702Z,-934.53
2019-02-07T07:07:40.889Z,-929.76
2019-02-07T07:08:41.088Z,-928.84
2019-02-07T07:09:41.323Z,-934.88
2019-02-07T07:10:41.564Z,-936.32
2019-02-07T07:11:41.725Z,-936.46
2019-02-07T07:12:41.927Z,-937.15
2019-02-07T07:13:42.366Z,-934.55
2019-02-07T07:14:42.367Z,-936.67
2019-02-07T07:15:42.532Z,-928.91
2019-02-07T07:16:42.741Z,-933.95
2019-02-07T07:17:42.962Z,-921.41
2019-02-07T07:18:43.181Z,-932.27
2019-02-07T07:19:43.500Z,-931.12
2019-02-07T07:20:43.564Z,-933.47
2019-02-07T07:21:43.805Z,-934.71
2019-02-07T07:22:43.997Z,-932.92
2019-02-07T07:23:44.200Z,-934.59
2019-02-07T07:24:44.433Z,-936.54
2019-02-07T07:25:44.613Z,-937.36
2019-02-07T07:26:44.808Z,-933.58
2019-02-07T07:27:45.091Z,-935.80
2019-02-07T07:28:45.228Z,-939.55
2019-02-07T07:29:45.610Z,-940.15
2019-02-07T07:30:45.647Z,-937.90
2019-02-07T07:31:45.837Z,-937.02
2019-02-07T07:32:46.083Z,-941.03
2019-02-07T07:33:46.290Z,-939.34
2019-02-07T07:34:46.801Z,-944.34
2019-02-07T07:35:46.811Z,-932.06
2019-02-07T07:36:46.884Z,-933.95
2019-02-07T07:37:47.127Z,-937.68
2019-02-07T07:38:47.352Z,-940.66
2019-02-07T07:39:47.602Z,-942.51
2019-02-07T07:40:47.764Z,-933.41
2019-02-07T07:41:47.969Z,-935.09
2019-02-07T07:42:48.194Z,-943.56
2019-02-07T07:43:48.420Z,-949.77
2019-02-07T07:44:48.616Z,-949.62
2019-02-07T07:45:48.787Z,-943.38
2019-02-07T07:46:48.990Z,-944.55
2019-02-07T07:47:49.215Z,-946.88
2019-02-07T07:48:49.403Z,-926.55
2019-02-07T07:49:49.972Z,-942.73
2019-02-07T07:50:49.828Z,-937.83
2019-02-07T07:51:50.057Z,-937.76
2019-02-07T07:52:50.300Z,-932.26
2019-02-07T07:53:50.446Z,-937.27
2019-02-07T07:54:50.688Z,-939.17
2019-02-07T07:55:50.867Z,-907.26
2019-02-07T07:56:51.068Z,-928.46
2019-02-07T07:57:51.295Z,-935.58
2019-02-07T07:58:51.490Z,-937.68
2019-02-07T07:59:51.791Z,-943.64
2019-02-07T08:00:52.002Z,-945.93
2019-02-07T08:01:52.109Z,-890.33
2019-02-07T08:02:52.333Z,-945.13
2019-02-07T08:03:52.519Z,-942.75
2019-02-07T08:04:52.802Z,-949.66
2019-02-07T08:05:53.386Z,-950.16
2019-02-07T08:06:53.166Z,-953.92
2019-02-07T08:07:53.363Z,-943.01
2019-02-07T08:08:53.712Z,-940.94
2019-02-07T08:09:53.781Z,-933.65
2019-02-07T08:10:53.955Z,-940.06
2019-02-07T08:11:54.202Z,-938.77
2019-02-07T08:12:54.413Z,-932.04
2019-02-07T08:13:54.589Z,-943.92
2019-02-07T08:14:54.807Z,-944.48
2019-02-07T08:15:55.109Z,-938.67
2019-02-07T08:16:55.302Z,-939.17
2019-02-07T08:17:55.419Z,-892.85
2019-02-07T08:18:55.618Z,-942.27
2019-02-07T08:19:55.840Z,-944.86
2019-02-07T08:20:56.028Z,-951.99
2019-02-07T08:21:56.241Z,-951.47
2019-02-07T08:22:56.445Z,-954.67
2019-02-07T08:23:56.651Z,-960.66
2019-02-07T08:24:56.936Z,-948.73
2019-02-07T08:25:57.063Z,-947.84
2019-02-07T08:26:57.344Z,-949.32
2019-02-07T08:27:57.472Z,-949.03
2019-02-07T08:28:57.681Z,-948.35
2019-02-07T08:29:57.922Z,-951.60
2019-02-07T08:30:58.113Z,-951.74
2019-02-07T08:31:58.343Z,-894.46
2019-02-07T08:32:58.585Z,-946.58
2019-02-07T08:33:58.786Z,-946.48
2019-02-07T08:34:58.942Z,-949.33
2019-02-07T08:35:59.148Z,-940.26
2019-02-07T08:36:59.377Z,-941.89
2019-02-07T08:37:59.582Z,-945.98
2019-02-07T08:38:59.760Z,-948.59
2019-02-07T08:39:59.962Z,-948.10
2019-02-07T08:41:00.208Z,-957.85
2019-02-07T08:42:00.595Z,-949.40
2019-02-07T08:43:00.660Z,-942.58
2019-02-07T08:44:00.839Z,-949.73
2019-02-07T08:45:01.050Z,-944.75
2019-02-07T08:46:01.345Z,-942.71
2019-02-07T08:47:01.509Z,-941.36
2019-02-07T08:48:03.694Z,-948.39
2019-02-07T08:49:01.906Z,-947.71
2019-02-07T08:50:02.193Z,-882.96
2019-02-07T08:51:02.321Z,-936.16
2019-02-07T08:52:02.754Z,-943.37
2019-02-07T08:53:02.740Z,-944.20
2019-02-07T08:54:02.915Z,-890.09
2019-02-07T08:55:03.142Z,-946.19
2019-02-07T08:56:03.348Z,-938.27
2019-02-07T08:57:03.579Z,-929.68
2019-02-07T08:58:03.869Z,-890.96
2019-02-07T08:59:03.952Z,-943.43
2019-02-07T09:00:04.166Z,-887.38
2019-02-07T09:01:04.388Z,-944.51
2019-02-07T09:02:04.565Z,-894.65
2019-02-07T09:03:04.815Z,-950.47
2019-02-07T09:04:04.992Z,-889.62
2019-02-07T09:05:05.197Z,-940.25
2019-02-07T09:06:05.487Z,-885.31
2019-02-07T09:07:05.637Z,-934.94
2019-02-07T09:08:05.847Z,-888.97
2019-02-07T09:09:06.032Z,-943.12
2019-02-07T09:10:06.240Z,-942.74
2019-02-07T09:11:06.468Z,-944.20
2019-02-07T09:12:06.666Z,-941.94
2019-02-07T09:13:06.893Z,-946.99
2019-02-07T09:14:07.081Z,-951.27
2019-02-07T09:15:07.367Z,-944.57
2019-02-07T09:16:07.523Z,-944.98
2019-02-07T09:17:07.700Z,-937.64
2019-02-07T09:18:10.317Z,-885.40
2019-02-07T09:19:08.106Z,-940.51
2019-02-07T09:20:08.332Z,-941.77
2019-02-07T09:21:08.558Z,-940.95
2019-02-07T09:22:08.779Z,-887.03
2019-02-07T09:23:09.085Z,-937.53
2019-02-07T09:24:09.189Z,-893.04
2019-02-07T09:25:09.399Z,-951.37
2019-02-07T09:26:09.631Z,-891.03
2019-02-07T09:27:09.843Z,-940.82
2019-02-07T09:28:10.089Z,-941.24
2019-02-07T09:29:10.218Z,-941.81
2019-02-07T09:30:10.444Z,-884.47
2019-02-07T09:31:10.758Z,-937.50
2019-02-07T09:32:10.855Z,-937.43
2019-02-07T09:33:11.121Z,-936.17
2019-02-07T09:34:11.284Z,-937.54
2019-02-07T09:35:11.557Z,-936.03
2019-02-07T09:36:11.702Z,-888.43
2019-02-07T09:37:11.935Z,-937.82
2019-02-07T09:38:12.123Z,-884.83
2019-02-07T09:39:12.374Z,-937.57
2019-02-07T09:40:12.487Z,-940.35
2019-02-07T09:41:12.721Z,-941.75
2019-02-07T09:42:12.914Z,-941.89
2019-02-07T09:43:13.140Z,-941.57
2019-02-07T09:44:13.364Z,-931.13
2019-02-07T09:45:13.574Z,-933.75
2019-02-07T09:46:13.803Z,-931.13
2019-02-07T09:47:14.001Z,-938.81
2019-02-07T09:48:21.378Z,-882.90
2019-02-07T09:49:15.425Z,-929.76
2019-02-07T09:50:14.629Z,-938.70
2019-02-07T09:51:14.857Z,-937.95
2019-02-07T09:52:15.028Z,-940.55
2019-02-07T09:53:23.778Z,-939.58
2019-02-07T09:54:16.498Z,-946.19
2019-02-07T09:55:15.697Z,-949.48
2019-02-07T09:56:16.033Z,-944.22
2019-02-07T09:57:16.082Z,-947.56
2019-02-07T09:58:16.312Z,-944.19
2019-02-07T09:59:16.520Z,-940.69
2019-02-07T10:00:16.719Z,-944.70
2019-02-07T10:01:16.941Z,-892.46
2019-02-07T10:02:17.128Z,-894.63
2019-02-07T10:03:17.341Z,-948.62
2019-02-07T10:04:17.707Z,-950.90
2019-02-07T10:05:17.739Z,-953.52
2019-02-07T10:06:17.981Z,-958.07
2019-02-07T10:07:18.168Z,-949.46
2019-02-07T10:08:18.371Z,-952.60
2019-02-07T10:09:18.598Z,-961.40
2019-02-07T10:10:18.787Z,-954.25
2019-02-07T10:11:19.014Z,-956.70
2019-02-07T10:12:19.237Z,-961.25
2019-02-07T10:13:19.406Z,-964.17
2019-02-07T10:14:19.625Z,-968.42
2019-02-07T10:15:19.831Z,-957.20
2019-02-07T10:16:20.058Z,-951.30
2019-02-07T10:17:20.243Z,-959.05
2019-02-07T10:18:20.471Z,-957.42
2019-02-07T10:19:20.680Z,-954.95
2019-02-07T10:20:20.895Z,-955.92
2019-02-07T10:21:21.071Z,-953.43
2019-02-07T10:22:21.270Z,-955.58
2019-02-07T10:23:21.484Z,-962.16
2019-02-07T10:24:21.711Z,-963.67
2019-02-07T10:25:21.881Z,-961.59
2019-02-07T10:26:22.109Z,-961.70
2019-02-07T10:27:22.305Z,-970.12
2019-02-07T10:28:22.577Z,-952.80
2019-02-07T10:29:23.064Z,-955.00
2019-02-07T10:30:22.923Z,-958.66
2019-02-07T10:31:23.147Z,-962.08
2019-02-07T10:32:23.350Z,-963.50
2019-02-07T10:33:23.558Z,-954.24
2019-02-07T10:34:23.792Z,-950.63
2019-02-07T10:35:23.971Z,-925.32
2019-02-07T10:36:24.199Z,-887.08
2019-02-07T10:37:24.503Z,-945.93
2019-02-07T10:38:24.597Z,-947.39
2019-02-07T10:39:24.821Z,-949.65
2019-02-07T10:40:25.003Z,-948.07
2019-02-07T10:41:25.202Z,-952.54
2019-02-07T10:42:25.407Z,-954.89
2019-02-07T10:43:25.627Z,-955.03
2019-02-07T10:44:25.868Z,-957.19
2019-02-07T10:45:26.145Z,-959.05
2019-02-07T10:46:26.221Z,-954.37
2019-02-07T10:47:26.482Z,-940.49
2019-02-07T10:48:26.691Z,-946.51
2019-02-07T10:49:26.928Z,-940.94
2019-02-07T10:50:27.123Z,-955.20
2019-02-07T10:51:27.316Z,-950.77
2019-02-07T10:52:27.539Z,-959.33
2019-02-07T10:53:27.778Z,-949.53
2019-02-07T10:54:27.969Z,-953.95
2019-02-07T10:55:28.151Z,-959.46
2019-02-07T10:56:28.365Z,-954.67
2019-02-07T10:57:28.583Z,-938.95
2019-02-07T10:58:28.749Z,-948.51
2019-02-07T10:59:28.979Z,-954.79
2019-02-07T11:00:29.188Z,-951.34
2019-02-07T11:01:29.501Z,-956.22
2019-02-07T11:02:29.643Z,-961.82
2019-02-07T11:03:29.823Z,-959.04
2019-02-07T11:04:30.029Z,-963.76
2019-02-07T11:05:30.236Z,-959.29
2019-02-07T11:06:30.453Z,-961.08
2019-02-07T11:07:30.670Z,-954.46
2019-02-07T11:08:30.853Z,-956.75
2019-02-07T11:09:31.201Z,-956.17
2019-02-07T11:10:31.402Z,-951.64
2019-02-07T11:11:31.498Z,-958.81
2019-02-07T11:12:31.704Z,-964.19
2019-02-07T11:13:31.893Z,-957.76
2019-02-07T11:14:32.121Z,-954.57
2019-02-07T11:15:32.293Z,-943.11
2019-02-07T11:16:32.526Z,-958.00
2019-02-07T11:17:32.741Z,-962.92
2019-02-07T11:18:33.074Z,-958.57
2019-02-07T11:19:33.164Z,-953.26
2019-02-07T11:20:33.351Z,-957.92
2019-02-07T11:21:33.564Z,-960.58
2019-02-07T11:22:33.792Z,-964.59
2019-02-07T11:23:33.974Z,-960.66
2019-02-07T11:24:34.204Z,-963.82
2019-02-07T11:25:34.445Z,-961.32
2019-02-07T11:26:34.647Z,-966.31
2019-02-07T11:27:34.808Z,-962.70
2019-02-07T11:28:35.006Z,-959.41
2019-02-07T11:29:35.233Z,-940.46
2019-02-07T11:30:35.452Z,-955.36
2019-02-07T11:31:35.631Z,-957.12
2019-02-07T11:32:35.839Z,-962.30
2019-02-07T11:33:36.046Z,-960.74
2019-02-07T11:34:36.546Z,-952.78
2019-02-07T11:35:36.453Z,-938.97
2019-02-07T11:36:36.714Z,-950.11
2019-02-07T11:37:36.855Z,-955.48
2019-02-07T11:38:37.034Z,-955.60
2019-02-07T11:39:37.267Z,-960.14
2019-02-07T11:40:37.498Z,-957.06
2019-02-07T11:41:37.672Z,-955.43
2019-02-07T11:42:37.945Z,-954.65
2019-02-07T11:43:38.111Z,-954.53
2019-02-07T11:44:38.312Z,-966.37
2019-02-07T11:45:38.516Z,-963.79
2019-02-07T11:46:38.703Z,-958.26
2019-02-07T11:47:38.928Z,-961.02
2019-02-07T11:48:39.165Z,-965.13
2019-02-07T11:49:39.325Z,-960.31
2019-02-07T11:50:39.587Z,-959.36
2019-02-07T11:51:39.847Z,-960.81
2019-02-07T11:52:39.964Z,-966.62
2019-02-07T11:53:40.136Z,-969.43
2019-02-07T11:54:40.366Z,-947.21
2019-02-07T11:55:40.588Z,-929.21
2019-02-07T11:56:40.766Z,-944.29
2019-02-07T11:57:40.993Z,-957.87
2019-02-07T11:58:41.179Z,-957.71
2019-02-07T11:59:41.470Z,-953.97
2019-02-07T12:00:41.622Z,-957.37
2019-02-07T12:01:41.802Z,-961.03
2019-02-07T12:02:42.031Z,-957.86
2019-02-07T12:03:42.215Z,-945.70
2019-02-07T12:04:42.425Z,-945.14
2019-02-07T12:05:42.643Z,-937.85
2019-02-07T12:06:42.853Z,-955.83
2019-02-07T12:07:43.334Z,-941.57